sensor_id;sensor_type;location;lat;lon;timestamp;pressure;altitude;pressure_sealevel;temperature;humidity
58686;BME280;44465;53.206;-6.106;2024-02-16T00:00:55;100497.63;;;21.17;48.15
58686;BME280;44465;53.206;-6.106;2024-02-16T00:03:22;100495.81;;;21.17;48.21
58686;BME280;44465;53.206;-6.106;2024-02-16T00:05:47;100500.13;;;21.20;48.16
58686;BME280;44465;53.206;-6.106;2024-02-16T00:08:15;100507.22;;;21.21;48.12
58686;BME280;44465;53.206;-6.106;2024-02-16T00:10:42;100498.41;;;21.19;48.08
58686;BME280;44465;53.206;-6.106;2024-02-16T00:13:08;100500.31;;;21.17;48.02
58686;BME280;44465;53.206;-6.106;2024-02-16T00:15:33;100498.59;;;21.16;48.26
58686;BME280;44465;53.206;-6.106;2024-02-16T00:17:59;100504.72;;;21.18;47.92
58686;BME280;44465;53.206;-6.106;2024-02-16T00:20:25;100507.56;;;21.15;48.01
58686;BME280;44465;53.206;-6.106;2024-02-16T00:25:16;100518.09;;;21.18;47.96
58686;BME280;44465;53.206;-6.106;2024-02-16T00:27:43;100504.88;;;21.15;47.94
58686;BME280;44465;53.206;-6.106;2024-02-16T00:30:09;100473.97;;;20.95;48.19
58686;BME280;44465;53.206;-6.106;2024-02-16T00:32:38;100522.50;;;21.19;47.97
58686;BME280;44465;53.206;-6.106;2024-02-16T00:35:04;100525.97;;;21.21;48.09
58686;BME280;44465;53.206;-6.106;2024-02-16T00:37:29;100521.84;;;21.15;48.16
58686;BME280;44465;53.206;-6.106;2024-02-16T00:39:55;100525.19;;;21.19;48.05
58686;BME280;44465;53.206;-6.106;2024-02-16T00:42:21;100530.31;;;21.22;47.88
58686;BME280;44465;53.206;-6.106;2024-02-16T00:44:49;100533.50;;;21.14;48.07
58686;BME280;44465;53.206;-6.106;2024-02-16T00:47:14;100518.56;;;21.10;48.02
58686;BME280;44465;53.206;-6.106;2024-02-16T00:49:45;100529.75;;;21.17;48.08
58686;BME280;44465;53.206;-6.106;2024-02-16T00:52:10;100531.38;;;21.19;47.86
58686;BME280;44465;53.206;-6.106;2024-02-16T00:54:36;100515.03;;;21.10;47.93
58686;BME280;44465;53.206;-6.106;2024-02-16T00:57:02;100522.78;;;21.14;47.86
58686;BME280;44465;53.206;-6.106;2024-02-16T00:59:29;100531.00;;;21.11;48.01
58686;BME280;44465;53.206;-6.106;2024-02-16T01:01:54;100536.25;;;21.13;48.00
58686;BME280;44465;53.206;-6.106;2024-02-16T01:04:20;100537.00;;;21.15;48.03
58686;BME280;44465;53.206;-6.106;2024-02-16T01:09:11;100534.34;;;21.15;48.07
58686;BME280;44465;53.206;-6.106;2024-02-16T01:11:40;100526.41;;;21.13;47.80
58686;BME280;44465;53.206;-6.106;2024-02-16T01:14:06;100539.53;;;21.18;47.90
58686;BME280;44465;53.206;-6.106;2024-02-16T01:16:32;100536.06;;;21.16;47.90
58686;BME280;44465;53.206;-6.106;2024-02-16T01:18:58;100533.22;;;21.19;47.87
58686;BME280;44465;53.206;-6.106;2024-02-16T01:21:24;100539.53;;;21.18;47.91
58686;BME280;44465;53.206;-6.106;2024-02-16T01:23:49;100536.84;;;21.18;47.69
58686;BME280;44465;53.206;-6.106;2024-02-16T01:26:15;100534.16;;;21.18;47.85
58686;BME280;44465;53.206;-6.106;2024-02-16T01:28:40;100525.34;;;21.16;47.76
58686;BME280;44465;53.206;-6.106;2024-02-16T01:31:06;100532.44;;;21.17;47.58
58686;BME280;44465;53.206;-6.106;2024-02-16T01:33:35;100518.84;;;21.05;47.96
58686;BME280;44465;53.206;-6.106;2024-02-16T01:36:02;100536.84;;;21.18;47.76
58686;BME280;44465;53.206;-6.106;2024-02-16T01:38:28;100542.47;;;21.13;47.82
58686;BME280;44465;53.206;-6.106;2024-02-16T01:40:53;100534.34;;;21.15;47.77
58686;BME280;44465;53.206;-6.106;2024-02-16T01:43:22;100522.34;;;21.06;47.63
58686;BME280;44465;53.206;-6.106;2024-02-16T01:45:48;100534.72;;;21.08;47.62
58686;BME280;44465;53.206;-6.106;2024-02-16T01:48:16;100547.16;;;21.10;47.53
58686;BME280;44465;53.206;-6.106;2024-02-16T01:50:43;100537.97;;;21.14;47.55
58686;BME280;44465;53.206;-6.106;2024-02-16T01:53:10;100540.56;;;21.15;47.70
58686;BME280;44465;53.206;-6.106;2024-02-16T01:55:36;100530.22;;;21.09;47.77
58686;BME280;44465;53.206;-6.106;2024-02-16T01:58:03;100538.19;;;21.11;47.52
58686;BME280;44465;53.206;-6.106;2024-02-16T02:02:55;100535.50;;;21.11;47.32
58686;BME280;44465;53.206;-6.106;2024-02-16T02:05:23;100522.72;;;21.00;47.69
58686;BME280;44465;53.206;-6.106;2024-02-16T02:07:49;100557.88;;;21.10;47.49
58686;BME280;44465;53.206;-6.106;2024-02-16T02:10:14;100558.53;;;21.13;47.64
58686;BME280;44465;53.206;-6.106;2024-02-16T02:15:08;100558.72;;;21.10;47.35
58686;BME280;44465;53.206;-6.106;2024-02-16T02:19:59;100544.66;;;21.06;47.65
58686;BME280;44465;53.206;-6.106;2024-02-16T02:22:25;100555.19;;;21.10;47.83
58686;BME280;44465;53.206;-6.106;2024-02-16T02:24:52;100559.75;;;21.07;47.36
58686;BME280;44465;53.206;-6.106;2024-02-16T02:27:21;100549.06;;;21.07;47.56
58686;BME280;44465;53.206;-6.106;2024-02-16T02:29:47;100554.41;;;21.07;47.56
58686;BME280;44465;53.206;-6.106;2024-02-16T02:32:13;100556.13;;;21.08;47.47
58686;BME280;44465;53.206;-6.106;2024-02-16T02:34:39;100548.19;;;21.07;47.63
58686;BME280;44465;53.206;-6.106;2024-02-16T02:37:05;100547.44;;;21.05;47.47
58686;BME280;44465;53.206;-6.106;2024-02-16T02:39:31;100557.88;;;21.10;47.48
58686;BME280;44465;53.206;-6.106;2024-02-16T02:41:59;100565.91;;;21.10;47.54
58686;BME280;44465;53.206;-6.106;2024-02-16T02:44:25;100562.28;;;21.11;47.39
58686;BME280;44465;53.206;-6.106;2024-02-16T02:46:51;100559.00;;;21.05;47.45
58686;BME280;44465;53.206;-6.106;2024-02-16T02:49:17;100566.66;;;21.12;47.33
58686;BME280;44465;53.206;-6.106;2024-02-16T02:51:43;100564.44;;;21.04;47.54
58686;BME280;44465;53.206;-6.106;2024-02-16T02:54:09;100566.66;;;21.12;47.67
58686;BME280;44465;53.206;-6.106;2024-02-16T02:56:34;100563.22;;;21.10;47.55
58686;BME280;44465;53.206;-6.106;2024-02-16T02:59:00;100559.75;;;21.07;47.30
58686;BME280;44465;53.206;-6.106;2024-02-16T03:01:26;100570.47;;;21.07;47.56
58686;BME280;44465;53.206;-6.106;2024-02-16T03:03:51;100575.84;;;21.07;47.31
58686;BME280;44465;53.206;-6.106;2024-02-16T03:06:18;100550.81;;;20.92;47.34
58686;BME280;44465;53.206;-6.106;2024-02-16T03:08:43;100559.63;;;20.95;47.38
58686;BME280;44465;53.206;-6.106;2024-02-16T03:11:09;100578.69;;;21.04;47.43
58686;BME280;44465;53.206;-6.106;2024-02-16T03:13:36;100575.84;;;21.07;47.47
58686;BME280;44465;53.206;-6.106;2024-02-16T03:16:01;100588.34;;;21.07;47.44
58686;BME280;44465;53.206;-6.106;2024-02-16T03:18:30;100595.69;;;21.03;47.52
58686;BME280;44465;53.206;-6.106;2024-02-16T03:20:57;100596.31;;;21.08;47.43
58686;BME280;44465;53.206;-6.106;2024-02-16T03:23:23;100593.63;;;21.08;47.38
58686;BME280;44465;53.206;-6.106;2024-02-16T03:25:49;100579.84;;;21.00;47.33
58686;BME280;44465;53.206;-6.106;2024-02-16T03:28:14;100589.28;;;21.06;47.52
58686;BME280;44465;53.206;-6.106;2024-02-16T03:30:41;100599.81;;;21.09;47.54
58686;BME280;44465;53.206;-6.106;2024-02-16T03:33:08;100591.91;;;21.07;47.48
58686;BME280;44465;53.206;-6.106;2024-02-16T03:35:34;100578.94;;;21.00;47.28
58686;BME280;44465;53.206;-6.106;2024-02-16T03:38:00;100596.31;;;21.08;47.58
58686;BME280;44465;53.206;-6.106;2024-02-16T03:40:25;100599.16;;;21.05;47.35
58686;BME280;44465;53.206;-6.106;2024-02-16T03:43:00;100601.94;;;21.04;47.32
58686;BME280;44465;53.206;-6.106;2024-02-16T03:45:25;100613.31;;;21.07;47.51
58686;BME280;44465;53.206;-6.106;2024-02-16T03:47:54;100610.22;;;20.99;47.53
58686;BME280;44465;53.206;-6.106;2024-02-16T03:50:20;100610.22;;;20.99;47.09
58686;BME280;44465;53.206;-6.106;2024-02-16T03:52:46;100617.03;;;21.05;47.12
58686;BME280;44465;53.206;-6.106;2024-02-16T03:55:11;100622.41;;;21.05;47.43
58686;BME280;44465;53.206;-6.106;2024-02-16T03:57:37;100617.09;;;21.03;47.33
58686;BME280;44465;53.206;-6.106;2024-02-16T04:00:03;100621.34;;;21.07;47.14
58686;BME280;44465;53.206;-6.106;2024-02-16T04:02:39;100614.44;;;21.03;47.29
58686;BME280;44465;53.206;-6.106;2024-02-16T04:05:04;100628.50;;;21.07;47.28
58686;BME280;44465;53.206;-6.106;2024-02-16T04:07:30;100630.44;;;21.05;47.37
58686;BME280;44465;53.206;-6.106;2024-02-16T04:09:56;100628.88;;;21.01;47.58
58686;BME280;44465;53.206;-6.106;2024-02-16T04:12:21;100627.66;;;21.06;47.43
58686;BME280;44465;53.206;-6.106;2024-02-16T04:14:48;100625.91;;;21.05;47.46
58686;BME280;44465;53.206;-6.106;2024-02-16T04:17:14;100624.97;;;21.06;47.84
58686;BME280;44465;53.206;-6.106;2024-02-16T04:19:39;100627.66;;;21.06;47.24
58686;BME280;44465;53.206;-6.106;2024-02-16T04:22:05;100619.00;;;21.01;47.25
58686;BME280;44465;53.206;-6.106;2024-02-16T04:24:30;100627.81;;;21.03;47.37
58686;BME280;44465;53.206;-6.106;2024-02-16T04:26:56;100621.19;;;20.95;47.39
58686;BME280;44465;53.206;-6.106;2024-02-16T04:29:21;100641.19;;;21.03;47.43
58686;BME280;44465;53.206;-6.106;2024-02-16T04:31:47;100623.16;;;20.91;47.31
58686;BME280;44465;53.206;-6.106;2024-02-16T04:34:13;100649.22;;;21.03;47.19
58686;BME280;44465;53.206;-6.106;2024-02-16T04:36:40;100620.59;;;20.89;47.33
58686;BME280;44465;53.206;-6.106;2024-02-16T04:39:06;100642.16;;;21.02;47.19
58686;BME280;44465;53.206;-6.106;2024-02-16T04:41:31;100641.97;;;21.05;47.38
58686;BME280;44465;53.206;-6.106;2024-02-16T04:43:57;100650.88;;;21.06;47.21
58686;BME280;44465;53.206;-6.106;2024-02-16T04:46:23;100645.59;;;21.04;47.80
58686;BME280;44465;53.206;-6.106;2024-02-16T04:48:49;100626.63;;;20.93;47.26
58686;BME280;44465;53.206;-6.106;2024-02-16T04:51:14;100631.03;;;20.94;47.44
58686;BME280;44465;53.206;-6.106;2024-02-16T04:53:40;100649.06;;;21.06;47.34
58686;BME280;44465;53.206;-6.106;2024-02-16T04:56:06;100648.19;;;21.06;47.13
58686;BME280;44465;53.206;-6.106;2024-02-16T04:58:32;100642.34;;;20.99;47.52
58686;BME280;44465;53.206;-6.106;2024-02-16T05:00:57;100663.41;;;21.05;47.36
58686;BME280;44465;53.206;-6.106;2024-02-16T05:03:23;100667.72;;;21.08;47.51
58686;BME280;44465;53.206;-6.106;2024-02-16T05:05:50;100659.78;;;21.06;47.27
58686;BME280;44465;53.206;-6.106;2024-02-16T05:08:17;100670.66;;;21.03;47.33
58686;BME280;44465;53.206;-6.106;2024-02-16T05:10:42;100670.84;;;21.00;47.18
58686;BME280;44465;53.206;-6.106;2024-02-16T05:13:08;100664.03;;;20.95;47.35
58686;BME280;44465;53.206;-6.106;2024-02-16T05:15:34;100671.88;;;20.98;47.08
58686;BME280;44465;53.206;-6.106;2024-02-16T05:17:59;100682.31;;;21.02;47.20
58686;BME280;44465;53.206;-6.106;2024-02-16T05:20:25;100690.34;;;21.02;47.24
58686;BME280;44465;53.206;-6.106;2024-02-16T05:22:50;100683.09;;;21.04;47.51
58686;BME280;44465;53.206;-6.106;2024-02-16T05:25:17;100688.44;;;21.04;47.45
58686;BME280;44465;53.206;-6.106;2024-02-16T05:27:46;100686.91;;;21.00;47.34
58686;BME280;44465;53.206;-6.106;2024-02-16T05:30:15;100681.56;;;21.00;47.19
58686;BME280;44465;53.206;-6.106;2024-02-16T05:32:42;100690.34;;;21.02;47.33
58686;BME280;44465;53.206;-6.106;2024-02-16T05:35:08;100691.38;;;21.00;47.39
58686;BME280;44465;53.206;-6.106;2024-02-16T05:37:42;100707.19;;;21.04;47.33
58686;BME280;44465;53.206;-6.106;2024-02-16T05:40:14;100704.69;;;21.01;47.48
58686;BME280;44465;53.206;-6.106;2024-02-16T05:42:54;100715.22;;;21.04;47.16
58686;BME280;44465;53.206;-6.106;2024-02-16T05:45:24;100703.22;;;20.96;47.28
58686;BME280;44465;53.206;-6.106;2024-02-16T05:47:51;100716.09;;;21.05;47.23
58686;BME280;44465;53.206;-6.106;2024-02-16T05:50:20;100725.16;;;21.02;47.13
58686;BME280;44465;53.206;-6.106;2024-02-16T05:52:46;100720.06;;;20.98;47.15
58686;BME280;44465;53.206;-6.106;2024-02-16T05:55:12;100724.28;;;21.02;47.33
58686;BME280;44465;53.206;-6.106;2024-02-16T05:57:38;100728.19;;;20.96;47.34
58686;BME280;44465;53.206;-6.106;2024-02-16T06:00:07;100710.91;;;20.86;47.21
58686;BME280;44465;53.206;-6.106;2024-02-16T06:02:33;100730.84;;;20.96;47.25
58686;BME280;44465;53.206;-6.106;2024-02-16T06:05:00;100733.38;;;20.99;47.15
58686;BME280;44465;53.206;-6.106;2024-02-16T06:07:26;100744.66;;;21.04;47.42
58686;BME280;44465;53.206;-6.106;2024-02-16T06:09:51;100751.91;;;21.02;47.38
58686;BME280;44465;53.206;-6.106;2024-02-16T06:12:17;100738.09;;;20.94;47.31
58686;BME280;44465;53.206;-6.106;2024-02-16T06:14:43;100763.41;;;21.04;46.95
58686;BME280;44465;53.206;-6.106;2024-02-16T06:17:08;100754.59;;;21.02;47.26
58686;BME280;44465;53.206;-6.106;2024-02-16T06:19:35;100763.41;;;21.04;47.15
58686;BME280;44465;53.206;-6.106;2024-02-16T06:22:00;100746.13;;;20.94;47.30
58686;BME280;44465;53.206;-6.106;2024-02-16T06:24:26;100762.56;;;21.04;47.11
58686;BME280;44465;53.206;-6.106;2024-02-16T06:26:52;100751.91;;;21.02;47.38
58686;BME280;44465;53.206;-6.106;2024-02-16T06:29:18;100752.19;;;20.98;47.19
58686;BME280;44465;53.206;-6.106;2024-02-16T06:31:46;100762.63;;;21.02;47.27
58686;BME280;44465;53.206;-6.106;2024-02-16T06:34:15;100763.56;;;21.01;47.22
58686;BME280;44465;53.206;-6.106;2024-02-16T06:36:44;100758.22;;;21.01;47.05
58686;BME280;44465;53.206;-6.106;2024-02-16T06:39:11;100767.22;;;21.00;47.34
58686;BME280;44465;53.206;-6.106;2024-02-16T06:41:37;100771.78;;;20.98;47.23
58686;BME280;44465;53.206;-6.106;2024-02-16T06:44:04;100770.66;;;21.02;47.33
58686;BME280;44465;53.206;-6.106;2024-02-16T06:46:29;100769.72;;;21.03;47.26
58686;BME280;44465;53.206;-6.106;2024-02-16T06:48:56;100768.88;;;21.03;47.40
58686;BME280;44465;53.206;-6.106;2024-02-16T06:51:23;100776.00;;;21.02;47.23
58686;BME280;44465;53.206;-6.106;2024-02-16T06:53:49;100782.16;;;21.04;47.33
58686;BME280;44465;53.206;-6.106;2024-02-16T06:56:15;100783.97;;;21.04;47.34
58686;BME280;44465;53.206;-6.106;2024-02-16T06:58:40;100780.00;;;20.95;47.11
58686;BME280;44465;53.206;-6.106;2024-02-16T07:01:07;100795.63;;;21.03;47.68
58686;BME280;44465;53.206;-6.106;2024-02-16T07:03:34;100799.16;;;21.03;47.29
58686;BME280;44465;53.206;-6.106;2024-02-16T07:06:02;100803.97;;;20.97;47.31
58686;BME280;44465;53.206;-6.106;2024-02-16T07:08:28;100800.31;;;20.99;47.46
58686;BME280;44465;53.206;-6.106;2024-02-16T07:10:54;100804.72;;;21.00;47.21
58686;BME280;44465;53.206;-6.106;2024-02-16T07:13:20;100807.44;;;20.99;46.78
58686;BME280;44465;53.206;-6.106;2024-02-16T07:15:46;100808.34;;;20.99;47.26
58686;BME280;44465;53.206;-6.106;2024-02-16T07:18:12;100814.53;;;21.00;47.28
58686;BME280;44465;53.206;-6.106;2024-02-16T07:20:38;100827.06;;;20.99;47.15
58686;BME280;44465;53.206;-6.106;2024-02-16T07:23:03;100812.28;;;20.92;47.21
58686;BME280;44465;53.206;-6.106;2024-02-16T07:25:29;100835.84;;;21.01;47.15
58686;BME280;44465;53.206;-6.106;2024-02-16T07:27:55;100825.16;;;21.01;47.00
58686;BME280;44465;53.206;-6.106;2024-02-16T07:30:20;100823.59;;;20.97;47.16
58686;BME280;44465;53.206;-6.106;2024-02-16T07:32:49;100830.44;;;21.03;47.01
58686;BME280;44465;53.206;-6.106;2024-02-16T07:35:19;100811.31;;;20.93;47.27
58686;BME280;44465;53.206;-6.106;2024-02-16T07:37:44;100838.53;;;21.01;47.29
58686;BME280;44465;53.206;-6.106;2024-02-16T07:40:10;100831.47;;;21.00;47.20
58686;BME280;44465;53.206;-6.106;2024-02-16T07:42:39;100810.72;;;20.88;47.25
58686;BME280;44465;53.206;-6.106;2024-02-16T07:45:08;100837.59;;;21.02;47.18
58686;BME280;44465;53.206;-6.106;2024-02-16T07:47:35;100849.09;;;21.04;47.22
58686;BME280;44465;53.206;-6.106;2024-02-16T07:50:01;100838.88;;;20.95;47.30
58686;BME280;44465;53.206;-6.106;2024-02-16T07:52:26;100846.66;;;21.00;47.38
58686;BME280;44465;53.206;-6.106;2024-02-16T07:54:52;100858.41;;;20.97;47.21
58686;BME280;44465;53.206;-6.106;2024-02-16T07:57:17;100857.47;;;20.98;47.20
58686;BME280;44465;53.206;-6.106;2024-02-16T07:59:43;100871.63;;;21.00;47.18
58686;BME280;44465;53.206;-6.106;2024-02-16T08:02:09;100861.16;;;20.96;47.25
58686;BME280;44465;53.206;-6.106;2024-02-16T08:04:35;100874.47;;;20.97;47.57
58686;BME280;44465;53.206;-6.106;2024-02-16T08:07:01;100864.88;;;20.93;47.20
58686;BME280;44465;53.206;-6.106;2024-02-16T08:09:27;100863.31;;;20.89;47.05
58686;BME280;44465;53.206;-6.106;2024-02-16T08:11:53;100852.31;;;20.77;47.18
58686;BME280;44465;53.206;-6.106;2024-02-16T08:14:18;100895.56;;;21.03;47.23
58686;BME280;44465;53.206;-6.106;2024-02-16T08:16:44;100888.66;;;20.99;47.01
58686;BME280;44465;53.206;-6.106;2024-02-16T08:19:09;100895.72;;;21.00;47.35
58686;BME280;44465;53.206;-6.106;2024-02-16T08:21:35;100900.22;;;21.00;47.29
58686;BME280;44465;53.206;-6.106;2024-02-16T08:24:00;100900.31;;;20.98;47.30
58686;BME280;44465;53.206;-6.106;2024-02-16T08:26:26;100898.41;;;21.00;47.24
58686;BME280;44465;53.206;-6.106;2024-02-16T08:28:51;100919.75;;;21.02;47.20
58686;BME280;44465;53.206;-6.106;2024-02-16T08:31:18;100913.59;;;21.00;47.56
58686;BME280;44465;53.206;-6.106;2024-02-16T08:33:44;100926.81;;;21.03;47.40
58686;BME280;44465;53.206;-6.106;2024-02-16T08:36:10;100929.56;;;21.01;47.17
58686;BME280;44465;53.206;-6.106;2024-02-16T08:38:36;100933.97;;;21.02;47.24
58686;BME280;44465;53.206;-6.106;2024-02-16T08:41:02;100936.84;;;20.99;47.53
58686;BME280;44465;53.206;-6.106;2024-02-16T08:43:29;100940.28;;;21.01;47.31
58686;BME280;44465;53.206;-6.106;2024-02-16T08:45:54;100937.16;;;20.93;46.98
58686;BME280;44465;53.206;-6.106;2024-02-16T08:48:20;100944.78;;;21.01;47.17
58686;BME280;44465;53.206;-6.106;2024-02-16T08:50:45;100939.03;;;20.91;47.39
58686;BME280;44465;53.206;-6.106;2024-02-16T08:53:11;100958.97;;;21.03;47.38
58686;BME280;44465;53.206;-6.106;2024-02-16T08:55:36;100958.25;;;20.99;47.36
58686;BME280;44465;53.206;-6.106;2024-02-16T08:58:02;100961.94;;;20.97;47.23
58686;BME280;44465;53.206;-6.106;2024-02-16T09:00:28;100962.03;;;20.95;47.43
58686;BME280;44465;53.206;-6.106;2024-02-16T09:02:53;100982.09;;;21.04;47.18
58686;BME280;44465;53.206;-6.106;2024-02-16T09:05:20;100968.22;;;20.96;47.17
58686;BME280;44465;53.206;-6.106;2024-02-16T09:07:45;100969.34;;;20.91;47.34
58686;BME280;44465;53.206;-6.106;2024-02-16T09:10:12;100994.69;;;21.02;47.42
58686;BME280;44465;53.206;-6.106;2024-02-16T09:12:40;101000.91;;;21.02;47.30
58686;BME280;44465;53.206;-6.106;2024-02-16T09:15:06;101007.22;;;21.01;47.46
58686;BME280;44465;53.206;-6.106;2024-02-16T09:17:32;101006.44;;;20.99;47.45
58686;BME280;44465;53.206;-6.106;2024-02-16T09:19:57;101009.03;;;21.01;47.21
58686;BME280;44465;53.206;-6.106;2024-02-16T09:22:23;100994.16;;;20.95;47.03
58686;BME280;44465;53.206;-6.106;2024-02-16T09:24:48;101000.59;;;20.91;47.51
58686;BME280;44465;53.206;-6.106;2024-02-16T09:27:14;101010.91;;;20.99;47.09
58686;BME280;44465;53.206;-6.106;2024-02-16T09:29:40;101014.47;;;20.99;47.10
58686;BME280;44465;53.206;-6.106;2024-02-16T09:32:06;101012.66;;;21.00;47.27
58686;BME280;44465;53.206;-6.106;2024-02-16T09:34:31;100981.63;;;20.78;47.51
58686;BME280;44465;53.206;-6.106;2024-02-16T09:36:57;101025.09;;;21.01;47.25
58686;BME280;44465;53.206;-6.106;2024-02-16T09:39:22;101021.63;;;20.99;47.26
58686;BME280;44465;53.206;-6.106;2024-02-16T09:41:51;101019.75;;;21.01;47.26
58686;BME280;44465;53.206;-6.106;2024-02-16T09:44:20;101027.69;;;21.02;47.46
58686;BME280;44465;53.206;-6.106;2024-02-16T09:46:47;101036.03;;;20.96;47.17
58686;BME280;44465;53.206;-6.106;2024-02-16T09:49:12;101043.03;;;20.99;47.45
58686;BME280;44465;53.206;-6.106;2024-02-16T09:51:38;101034.97;;;21.00;47.17
58686;BME280;44465;53.206;-6.106;2024-02-16T09:54:04;101043.94;;;20.99;47.08
58686;BME280;44465;53.206;-6.106;2024-02-16T09:56:30;101038.72;;;20.96;47.29
58686;BME280;44465;53.206;-6.106;2024-02-16T09:58:55;101060.94;;;20.98;47.33
58686;BME280;44465;53.206;-6.106;2024-02-16T10:01:22;101068.78;;;21.01;47.11
58686;BME280;44465;53.206;-6.106;2024-02-16T10:03:49;101068.78;;;21.01;47.19
58686;BME280;44465;53.206;-6.106;2024-02-16T10:06:16;101082.13;;;21.03;47.36
58686;BME280;44465;53.206;-6.106;2024-02-16T10:08:52;101077.78;;;21.00;47.26
58686;BME280;44465;53.206;-6.106;2024-02-16T10:11:22;101078.50;;;21.04;47.32
58686;BME280;44465;53.206;-6.106;2024-02-16T10:14:01;101082.03;;;21.04;47.45
58686;BME280;44465;53.206;-6.106;2024-02-16T10:16:28;101080.47;;;21.00;47.38
58686;BME280;44465;53.206;-6.106;2024-02-16T10:18:55;101097.16;;;21.05;47.37
58686;BME280;44465;53.206;-6.106;2024-02-16T10:21:29;101098.09;;;21.04;47.18
58686;BME280;44465;53.206;-6.106;2024-02-16T10:26:30;101104.25;;;21.06;47.17
58686;BME280;44465;53.206;-6.106;2024-02-16T10:28:57;101107.06;;;21.03;47.07
58686;BME280;44465;53.206;-6.106;2024-02-16T10:31:26;101078.56;;;20.85;47.27
58686;BME280;44465;53.206;-6.106;2024-02-16T10:34:03;101123.94;;;21.05;47.19
58686;BME280;44465;53.206;-6.106;2024-02-16T10:36:33;101128.50;;;21.03;47.19
58686;BME280;44465;53.206;-6.106;2024-02-16T10:39:00;101127.69;;;21.01;47.34
58686;BME280;44465;53.206;-6.106;2024-02-16T10:41:33;101146.19;;;21.06;47.26
58686;BME280;44465;53.206;-6.106;2024-02-16T10:44:01;101144.50;;;21.05;47.42
58686;BME280;44465;53.206;-6.106;2024-02-16T10:46:27;101149.84;;;21.05;47.11
58686;BME280;44465;53.206;-6.106;2024-02-16T10:48:52;101111.59;;;20.84;47.21
58686;BME280;44465;53.206;-6.106;2024-02-16T10:51:35;101155.91;;;21.08;47.03
58686;BME280;44465;53.206;-6.106;2024-02-16T10:56:38;101175.50;;;21.09;47.25
58686;BME280;44465;53.206;-6.106;2024-02-16T10:59:07;101184.34;;;21.11;47.31
58686;BME280;44465;53.206;-6.106;2024-02-16T11:01:41;101186.16;;;21.11;47.22
58686;BME280;44465;53.206;-6.106;2024-02-16T11:04:08;101193.22;;;21.12;47.25
58686;BME280;44465;53.206;-6.106;2024-02-16T11:06:54;101196.94;;;21.09;47.14
58686;BME280;44465;53.206;-6.106;2024-02-16T11:09:35;101203.31;;;21.06;47.27
58686;BME280;44465;53.206;-6.106;2024-02-16T11:12:05;101214.81;;;21.08;47.21
58686;BME280;44465;53.206;-6.106;2024-02-16T11:14:47;101225.53;;;21.08;47.06
58686;BME280;44465;53.206;-6.106;2024-02-16T11:17:22;101225.53;;;21.08;47.30
58686;BME280;44465;53.206;-6.106;2024-02-16T11:19:48;101234.50;;;21.07;47.43
58686;BME280;44465;53.206;-6.106;2024-02-16T11:22:18;101238.00;;;21.10;47.16
58686;BME280;44465;53.206;-6.106;2024-02-16T11:24:46;101244.19;;;21.10;47.38
58686;BME280;44465;53.206;-6.106;2024-02-16T11:27:12;101254.91;;;21.10;47.26
58686;BME280;44465;53.206;-6.106;2024-02-16T11:29:38;101261.91;;;21.13;47.28
58686;BME280;44465;53.206;-6.106;2024-02-16T11:32:05;101261.91;;;21.13;47.07
58686;BME280;44465;53.206;-6.106;2024-02-16T11:34:31;101262.84;;;21.12;47.38
58686;BME280;44465;53.206;-6.106;2024-02-16T11:36:58;101272.63;;;21.13;47.40
58686;BME280;44465;53.206;-6.106;2024-02-16T11:39:24;101277.03;;;21.14;47.38
58686;BME280;44465;53.206;-6.106;2024-02-16T11:42:11;101278.00;;;21.13;47.31
58686;BME280;44465;53.206;-6.106;2024-02-16T11:44:40;101278.94;;;21.12;47.32
58686;BME280;44465;53.206;-6.106;2024-02-16T11:47:07;101259.63;;;21.05;47.16
58686;BME280;44465;53.206;-6.106;2024-02-16T11:49:38;101278.88;;;21.13;47.22
58686;BME280;44465;53.206;-6.106;2024-02-16T11:52:04;101291.38;;;21.13;47.28
58686;BME280;44465;53.206;-6.106;2024-02-16T11:54:30;101280.66;;;21.13;47.21
58686;BME280;44465;53.206;-6.106;2024-02-16T11:59:22;101291.38;;;21.13;47.15
58686;BME280;44465;53.206;-6.106;2024-02-16T12:01:57;101289.50;;;21.15;47.33
58686;BME280;44465;53.206;-6.106;2024-02-16T12:07:01;101289.50;;;21.15;47.36
58686;BME280;44465;53.206;-6.106;2024-02-16T12:09:27;101289.63;;;21.12;47.27
58686;BME280;44465;53.206;-6.106;2024-02-16T12:11:54;101286.19;;;21.10;47.09
58686;BME280;44465;53.206;-6.106;2024-02-16T12:14:24;101294.84;;;21.15;47.16
58686;BME280;44465;53.206;-6.106;2024-02-16T12:16:55;101301.94;;;21.16;47.16
58686;BME280;44465;53.206;-6.106;2024-02-16T12:19:21;101305.44;;;21.18;47.29
58686;BME280;44465;53.206;-6.106;2024-02-16T12:21:54;101308.09;;;21.18;47.22
58686;BME280;44465;53.206;-6.106;2024-02-16T12:24:21;101310.00;;;21.16;47.08
58686;BME280;44465;53.206;-6.106;2024-02-16T12:26:47;101309.06;;;21.17;47.36
58686;BME280;44465;53.206;-6.106;2024-02-16T12:29:13;101320.56;;;21.19;47.09
58686;BME280;44465;53.206;-6.106;2024-02-16T12:31:40;101323.25;;;21.19;47.16
58686;BME280;44465;53.206;-6.106;2024-02-16T12:34:07;101337.56;;;21.18;47.09
58686;BME280;44465;53.206;-6.106;2024-02-16T12:36:36;101335.75;;;21.18;47.22
58686;BME280;44465;53.206;-6.106;2024-02-16T12:39:02;101327.72;;;21.18;47.23
58686;BME280;44465;53.206;-6.106;2024-02-16T12:41:30;101336.63;;;21.19;47.23
58686;BME280;44465;53.206;-6.106;2024-02-16T12:43:55;101337.44;;;21.21;47.25
58686;BME280;44465;53.206;-6.106;2024-02-16T12:46:21;101333.06;;;21.18;47.20
58686;BME280;44465;53.206;-6.106;2024-02-16T12:48:46;101327.06;;;21.13;47.34
58686;BME280;44465;53.206;-6.106;2024-02-16T12:51:12;101341.06;;;21.20;47.10
58686;BME280;44465;53.206;-6.106;2024-02-16T12:53:37;101326.84;;;21.18;46.91
58686;BME280;44465;53.206;-6.106;2024-02-16T12:56:09;101329.63;;;21.16;47.17
58686;BME280;44465;53.206;-6.106;2024-02-16T12:58:35;101345.38;;;21.22;47.13
58686;BME280;44465;53.206;-6.106;2024-02-16T13:01:06;101355.16;;;21.23;47.00